Time;durP1;ratioP1;P1;durP2;ratioP2;P2;SDS_P1;SDS_P2;PMS_P1;PMS_P2;Temp;Humidity;BMP_temperature;BMP_pressure;BME280_temperature;BME280_humidity;BME280_pressure;Samples;Min_cycle;Max_cycle;Signal;HPM_P1;HPM_P2
2020/12/10 00:01:27;;;;;;;24.60;12.07;;;;;;;4.07;84.49;102206.16;1622232;87;21245;-76
2020/12/10 00:04:02;;;;;;;26.63;12.63;;;;;;;4.02;84.50;102216.82;1594641;88;21233;-81
2020/12/10 00:06:35;;;;;;;37.33;14.53;;;;;;;4.00;84.64;102216.66;1615002;87;21235;-80
2020/12/10 00:09:08;;;;;;;30.20;12.27;;;;;;;4.04;84.85;102211.99;1609577;87;21382;-76
2020/12/10 00:11:42;;;;;;;29.57;11.20;;;;;;;4.14;85.01;102213.13;1618402;87;21379;-76
2020/12/10 00:14:15;;;;;;;29.10;12.90;;;;;;;4.19;84.85;102221.69;1602693;87;21303;-76
2020/12/10 00:16:49;;;;;;;30.00;13.25;;;;;;;4.15;84.65;102221.74;1619416;87;21776;-75
2020/12/10 00:19:22;;;;;;;22.83;10.13;;;;;;;4.12;84.64;102220.71;1616417;88;21920;-75
2020/12/10 00:21:56;;;;;;;24.43;10.40;;;;;;;4.15;84.75;102208.84;1613051;88;21282;-75
2020/12/10 00:24:32;;;;;;;27.70;12.53;;;;;;;4.14;84.61;102204.89;1621623;87;21845;-76
2020/12/10 00:27:05;;;;;;;28.80;11.50;;;;;;;4.10;84.61;102199.44;1615996;87;21286;-76
2020/12/10 00:29:40;;;;;;;22.97;10.03;;;;;;;4.05;84.64;102195.00;1595830;88;21230;-75
2020/12/10 00:32:18;;;;;;;21.25;10.03;;;;;;;4.03;84.74;102184.72;1603105;88;21232;-76
2020/12/10 00:34:52;;;;;;;36.33;13.80;;;;;;;4.03;84.85;102184.72;1603888;88;21242;-75
2020/12/10 00:37:27;;;;;;;31.33;13.33;;;;;;;4.01;84.91;102178.53;1626959;87;21255;-80
2020/12/10 00:40:02;;;;;;;28.67;12.50;;;;;;;3.98;85.01;102180.28;1599376;88;21419;-80
2020/12/10 00:42:36;;;;;;;30.53;13.43;;;;;;;3.97;85.18;102162.09;1605909;88;21227;-76
2020/12/10 00:45:10;;;;;;;28.60;11.97;;;;;;;3.94;85.34;102185.80;1605958;88;21368;-82
2020/12/10 00:47:43;;;;;;;30.43;13.45;;;;;;;3.94;85.46;102175.67;1598688;88;21244;-80
2020/12/10 00:50:16;;;;;;;31.05;12.88;;;;;;;3.96;85.52;102196.94;1598362;88;21362;-75
2020/12/10 00:52:49;;;;;;;26.33;11.63;;;;;;;3.99;85.53;102174.62;1626130;87;21433;-73
2020/12/10 00:55:24;;;;;;;35.20;13.77;;;;;;;4.01;85.53;102170.29;1615849;88;21434;-75
2020/12/10 00:57:57;;;;;;;29.63;12.43;;;;;;;4.00;85.58;102176.83;1614812;88;21247;-76
2020/12/10 01:00:30;;;;;;;32.65;12.75;;;;;;;4.03;85.68;102167.70;1594878;88;21753;-75
2020/12/10 01:03:02;;;;;;;30.95;13.83;;;;;;;4.03;85.54;102155.87;1602608;88;21318;-75
2020/12/10 01:05:36;;;;;;;32.03;14.50;;;;;;;4.02;85.57;102157.75;1602862;88;21753;-75
2020/12/10 01:08:12;;;;;;;29.63;12.10;;;;;;;4.01;85.61;102160.67;1582001;88;21242;-76
2020/12/10 01:10:46;;;;;;;29.42;11.50;;;;;;;3.97;85.68;102137.38;1609033;88;21812;-76
2020/12/10 01:13:21;;;;;;;33.13;13.47;;;;;;;3.96;85.86;102157.11;1600375;88;21250;-76
2020/12/10 01:15:55;;;;;;;35.43;14.20;;;;;;;3.93;85.91;102134.64;1610120;88;21270;-75
2020/12/10 01:18:28;;;;;;;33.78;14.03;;;;;;;3.89;86.00;102131.41;1601816;87;21219;-74
2020/12/10 01:21:01;;;;;;;23.02;11.12;;;;;;;3.92;86.16;102139.27;1592197;88;21248;-75
2020/12/10 01:23:33;;;;;;;44.90;12.97;;;;;;;3.96;86.17;102139.75;1606614;88;21242;-74
2020/12/10 01:26:11;;;;;;;32.07;13.10;;;;;;;3.97;86.23;102134.63;1581941;88;21298;-74
2020/12/10 01:28:43;;;;;;;29.17;11.43;;;;;;;3.96;86.32;102140.62;1619556;88;21872;-75
2020/12/10 01:31:16;;;;;;;38.03;13.53;;;;;;;3.95;86.32;102133.42;1591465;87;21290;-74
2020/12/10 01:33:49;;;;;;;28.27;12.53;;;;;;;3.93;86.37;102125.89;1596920;88;21290;-74
2020/12/10 01:36:23;;;;;;;35.20;12.83;;;;;;;3.92;86.55;102130.19;1596848;88;21313;-74
2020/12/10 01:38:55;;;;;;;27.73;12.30;;;;;;;3.88;86.70;102141.20;1604394;88;21274;-74
2020/12/10 01:41:34;;;;;;;35.83;13.13;;;;;;;3.84;86.78;102112.41;1595517;88;21772;-75
2020/12/10 01:44:14;;;;;;;32.00;13.90;;;;;;;3.81;86.94;102105.38;1591361;87;21824;-75
2020/12/10 01:46:46;;;;;;;34.70;13.80;;;;;;;3.84;87.10;102121.48;1594581;88;21262;-75
2020/12/10 01:49:19;;;;;;;26.10;11.90;;;;;;;3.86;87.21;102133.12;1621322;88;21234;-74
2020/12/10 01:51:52;;;;;;;28.13;11.57;;;;;;;3.86;87.27;102130.38;1616332;88;21782;-74
2020/12/10 01:54:30;;;;;;;30.73;12.60;;;;;;;3.84;87.26;102131.63;1625621;88;21449;-80
2020/12/10 01:57:03;;;;;;;28.40;12.20;;;;;;;3.83;87.42;102128.02;1601306;88;21227;-75
2020/12/10 01:59:35;;;;;;;35.33;14.30;;;;;;;3.81;87.47;102117.73;1602205;88;21261;-74
2020/12/10 02:02:08;;;;;;;31.93;11.93;;;;;;;3.79;87.51;102123.08;1599215;88;21225;-74
2020/12/10 02:04:48;;;;;;;34.00;12.60;;;;;;;3.79;87.62;102132.15;1604500;87;21733;-75
2020/12/10 02:07:22;;;;;;;32.30;11.80;;;;;;;3.79;87.76;102129.94;1626632;88;21778;-75
2020/12/10 02:09:56;;;;;;;28.97;13.20;;;;;;;3.80;87.99;102108.30;1608478;87;22200;-74
2020/12/10 02:12:28;;;;;;;29.47;12.77;;;;;;;3.82;88.10;102110.33;1614776;88;21231;-75
2020/12/10 02:15:01;;;;;;;28.38;13.15;;;;;;;3.81;88.11;102123.73;1599038;88;21253;-74
2020/12/10 02:17:34;;;;;;;35.03;12.17;;;;;;;3.81;88.15;102099.02;1597339;88;21216;-75
2020/12/10 02:20:07;;;;;;;37.70;13.80;;;;;;;3.87;88.24;102114.27;1615004;88;21274;-75
2020/12/10 02:22:39;;;;;;;28.75;12.18;;;;;;;3.89;88.15;102116.80;1626800;87;21369;-75
2020/12/10 02:25:12;;;;;;;27.07;10.70;;;;;;;3.88;88.08;102114.59;1608599;88;21223;-75
2020/12/10 02:27:45;;;;;;;25.90;10.80;;;;;;;3.88;88.10;102101.36;1593794;87;21298;-74
2020/12/10 02:30:20;;;;;;;22.20;9.43;;;;;;;3.87;88.15;102103.27;1596937;88;21303;-75
2020/12/10 02:33:01;;;;;;;25.37;11.23;;;;;;;3.89;88.31;102100.33;1612277;88;21257;-75
2020/12/10 02:35:37;;;;;;;20.67;10.27;;;;;;;3.91;88.39;102107.88;1597877;88;21262;-74
2020/12/10 02:38:14;;;;;;;24.33;9.70;;;;;;;3.93;88.45;102097.05;1593866;88;21373;-79
2020/12/10 02:40:48;;;;;;;27.57;10.13;;;;;;;3.96;88.53;102092.55;1628933;88;21227;-82
2020/12/10 02:43:20;;;;;;;20.53;9.93;;;;;;;4.01;88.64;102076.38;1614448;88;21211;-80
2020/12/10 02:45:54;;;;;;;24.75;10.30;;;;;;;4.03;88.59;102088.02;1596378;88;21332;-80
2020/12/10 02:48:26;;;;;;;26.33;10.97;;;;;;;4.03;88.53;102082.53;1601992;88;21277;-81
2020/12/10 02:51:01;;;;;;;19.77;9.07;;;;;;;4.06;88.62;102088.18;1602348;88;21295;-80
2020/12/10 02:53:36;;;;;;;26.53;10.23;;;;;;;4.12;88.61;102078.70;1610575;88;21247;-81
2020/12/10 02:56:11;;;;;;;27.67;12.03;;;;;;;4.14;88.60;102082.10;1617246;88;21261;-80
2020/12/10 02:58:44;;;;;;;35.77;14.00;;;;;;;4.14;88.55;102070.24;1622014;88;21235;-80
2020/12/10 03:01:17;;;;;;;32.05;12.30;;;;;;;4.12;88.58;102080.58;1627134;88;21251;-81
2020/12/10 03:03:49;;;;;;;36.93;15.20;;;;;;;4.10;88.57;102068.92;1620851;87;21354;-80
2020/12/10 03:06:22;;;;;;;22.77;9.43;;;;;;;4.08;88.53;102064.11;1620552;88;21234;-79
2020/12/10 03:08:54;;;;;;;32.27;12.23;;;;;;;4.06;88.54;102068.95;1598286;88;21294;-80
2020/12/10 03:11:27;;;;;;;24.40;10.10;;;;;;;4.03;88.48;102082.53;1603485;88;21241;-80
2020/12/10 03:14:02;;;;;;;28.92;11.88;;;;;;;4.03;88.53;102063.84;1601319;88;21242;-79
2020/12/10 03:16:35;;;;;;;28.13;12.23;;;;;;;4.01;88.55;102065.39;1616012;88;21255;-80
2020/12/10 03:19:07;;;;;;;32.07;12.93;;;;;;;4.04;88.64;102064.16;1626389;88;21219;-80
2020/12/10 03:21:40;;;;;;;26.50;9.83;;;;;;;4.05;88.64;102053.51;1593601;88;21231;-80
2020/12/10 03:24:12;;;;;;;32.60;12.97;;;;;;;4.09;88.74;102079.05;1611329;88;21253;-79
2020/12/10 03:26:45;;;;;;;24.87;11.23;;;;;;;4.10;88.67;102062.06;1595756;88;21242;-80
2020/12/10 03:29:18;;;;;;;26.43;10.77;;;;;;;4.07;88.63;102096.75;1597766;88;21802;-78
2020/12/10 03:31:51;;;;;;;25.85;10.15;;;;;;;4.06;88.67;102060.20;1615378;88;22188;-78
2020/12/10 03:34:23;;;;;;;30.80;11.83;;;;;;;4.06;88.69;102075.81;1627491;88;21373;-79
2020/12/10 03:36:57;;;;;;;31.60;10.80;;;;;;;4.04;88.74;102060.87;1596686;88;21246;-74
2020/12/10 03:39:30;;;;;;;29.27;10.83;;;;;;;4.01;88.79;102052.16;1599057;88;21235;-74
2020/12/10 03:42:03;;;;;;;29.25;11.57;;;;;;;4.00;88.85;102043.59;1614046;88;21242;-75
2020/12/10 03:44:36;;;;;;;28.70;10.90;;;;;;;3.98;88.87;102049.26;1620589;88;21437;-75
2020/12/10 03:47:08;;;;;;;26.50;11.60;;;;;;;4.00;88.92;102029.85;1607300;88;21842;-75
2020/12/10 03:49:41;;;;;;;33.30;12.45;;;;;;;3.99;88.96;102045.50;1615138;88;21286;-75
2020/12/10 03:52:14;;;;;;;20.27;9.43;;;;;;;3.98;88.96;102032.77;1615786;87;21749;-74
2020/12/10 03:54:46;;;;;;;23.23;9.87;;;;;;;3.98;89.02;102016.83;1608082;88;21258;-74
2020/12/10 03:57:19;;;;;;;22.53;10.07;;;;;;;3.97;89.10;102026.11;1603621;88;21547;-75
2020/12/10 03:59:52;;;;;;;29.90;10.93;;;;;;;3.96;89.16;102005.16;1609216;88;21278;-76
2020/12/10 04:02:25;;;;;;;30.83;11.17;;;;;;;3.95;89.26;102013.93;1587640;88;21790;-74
2020/12/10 04:04:58;;;;;;;30.85;11.03;;;;;;;3.95;89.25;102007.57;1605817;88;21350;-75
2020/12/10 04:07:31;;;;;;;21.80;9.08;;;;;;;3.92;89.30;102029.93;1607748;88;21762;-74
2020/12/10 04:10:03;;;;;;;33.87;11.93;;;;;;;3.87;89.38;102012.64;1620641;88;21243;-74
2020/12/10 04:12:36;;;;;;;32.33;13.57;;;;;;;3.89;89.48;102041.27;1595524;88;21233;-75
2020/12/10 04:15:09;;;;;;;31.07;12.33;;;;;;;3.90;89.56;102021.86;1608605;88;22110;-74
2020/12/10 04:17:41;;;;;;;29.73;9.97;;;;;;;3.90;89.59;102023.74;1591542;88;21281;-76
2020/12/10 04:20:14;;;;;;;25.48;8.88;;;;;;;3.91;89.66;102039.22;1591414;88;21242;-74
2020/12/10 04:22:46;;;;;;;25.63;10.83;;;;;;;3.93;89.72;102011.90;1598004;87;21241;-73
2020/12/10 04:25:19;;;;;;;26.33;9.13;;;;;;;3.95;89.75;102029.55;1612358;88;21859;-74
2020/12/10 04:27:52;;;;;;;30.20;10.40;;;;;;;3.97;89.80;102011.01;1598239;88;21734;-74
2020/12/10 04:30:24;;;;;;;23.27;8.97;;;;;;;3.98;89.83;102030.56;1599263;88;21307;-75
2020/12/10 04:32:57;;;;;;;24.05;9.23;;;;;;;4.00;89.85;102010.63;1610559;87;21326;-75
2020/12/10 04:35:30;;;;;;;29.05;10.55;;;;;;;4.02;89.86;102008.53;1614870;87;21282;-75
2020/12/10 04:38:03;;;;;;;23.62;9.85;;;;;;;4.01;89.82;102005.45;1617892;87;21230;-74
2020/12/10 04:40:36;;;;;;;27.27;10.20;;;;;;;4.00;89.81;102006.50;1620426;87;21220;-74
2020/12/10 04:43:10;;;;;;;28.07;9.17;;;;;;;4.03;89.83;101996.53;1620362;87;21287;-76
2020/12/10 04:45:47;;;;;;;32.50;11.87;;;;;;;4.04;89.84;101996.86;1623940;86;21232;-76
2020/12/10 04:48:20;;;;;;;25.50;10.40;;;;;;;4.04;89.85;101988.62;1618724;87;21254;-74
2020/12/10 04:50:54;;;;;;;25.35;10.72;;;;;;;4.06;89.92;101988.77;1617591;87;21754;-75
2020/12/10 04:53:29;;;;;;;23.47;10.00;;;;;;;4.09;89.91;101997.16;1602649;87;21282;-74
2020/12/10 04:56:07;;;;;;;26.97;10.77;;;;;;;4.09;89.87;102005.41;1631419;87;21234;-75
2020/12/10 04:58:39;;;;;;;28.67;10.53;;;;;;;4.10;89.84;101998.32;1635695;87;21259;-78
2020/12/10 05:01:15;;;;;;;27.87;11.33;;;;;;;4.14;89.86;101994.17;1638630;87;21723;-76
2020/12/10 05:03:47;;;;;;;24.40;10.97;;;;;;;4.12;89.82;101985.78;1626269;87;21752;-76
2020/12/10 05:06:20;;;;;;;23.65;9.48;;;;;;;4.10;89.86;101965.34;1627160;87;21248;-77
2020/12/10 05:08:52;;;;;;;24.10;9.23;;;;;;;4.10;89.91;101979.63;1609233;89;21249;-77
2020/12/10 05:11:36;;;;;;;20.80;9.47;;;;;;;4.09;89.97;101954.58;1604143;88;21241;-76
2020/12/10 05:14:09;;;;;;;30.50;10.83;;;;;;;4.11;90.04;101942.86;1607680;88;21368;-75
2020/12/10 05:16:42;;;;;;;24.98;9.85;;;;;;;4.10;90.03;101957.65;1588005;89;21463;-76
2020/12/10 05:19:21;;;;;;;25.52;11.05;;;;;;;4.11;90.01;101964.84;1596943;89;21236;-76
2020/12/10 05:22:07;;;;;;;22.53;8.83;;;;;;;4.07;89.96;101958.87;1588179;90;21241;-76
2020/12/10 05:24:40;;;;;;;22.57;9.07;;;;;;;4.12;90.08;101960.55;1595942;89;21268;-76
2020/12/10 05:27:22;;;;;;;25.60;9.97;;;;;;;4.16;90.11;101961.02;1562012;89;21297;-76
2020/12/10 05:29:55;;;;;;;23.00;8.20;;;;;;;4.16;90.01;101954.15;1551408;91;21780;-73
2020/12/10 05:32:42;;;;;;;21.45;8.25;;;;;;;4.14;89.94;101956.21;1557729;91;21253;-74
2020/12/10 05:35:25;;;;;;;20.40;9.17;;;;;;;4.12;89.93;101962.42;1601578;88;21259;-73
2020/12/10 05:37:58;;;;;;;18.98;9.55;;;;;;;4.10;90.00;101953.52;1583177;88;21465;-73
2020/12/10 05:40:30;;;;;;;19.47;9.50;;;;;;;4.09;90.03;102002.11;1585174;88;21246;-72
2020/12/10 05:43:03;;;;;;;21.07;8.47;;;;;;;4.09;90.08;101966.40;1619899;88;21501;-73
2020/12/10 05:45:39;;;;;;;18.73;8.83;;;;;;;4.12;90.10;101981.66;1571739;89;21322;-72
2020/12/10 05:48:12;;;;;;;30.67;8.83;;;;;;;4.10;90.07;101985.13;1570666;88;21253;-72
2020/12/10 05:50:44;;;;;;;22.33;9.17;;;;;;;4.10;90.08;101981.00;1587865;88;21741;-72
2020/12/10 05:53:22;;;;;;;20.37;8.47;;;;;;;4.09;90.10;101988.92;1566470;89;21276;-74
2020/12/10 05:55:54;;;;;;;22.87;8.70;;;;;;;4.10;90.17;101996.11;1617475;88;21250;-76
2020/12/10 05:58:27;;;;;;;16.23;8.10;;;;;;;4.15;90.27;101973.06;1600639;88;21734;-75
2020/12/10 06:01:00;;;;;;;22.17;10.90;;;;;;;4.18;90.27;101978.16;1602315;88;21761;-75
2020/12/10 06:03:33;;;;;;;21.90;9.13;;;;;;;4.21;90.23;102005.28;1593404;88;21674;-75
2020/12/10 06:06:07;;;;;;;20.12;9.30;;;;;;;4.21;90.19;101984.14;1593050;88;21250;-75
2020/12/10 06:08:39;;;;;;;;;;;;;;;4.20;90.21;101974.19;1620644;88;21314;-73
2020/12/10 06:11:20;;;;;;;19.50;9.10;;;;;;;4.21;90.28;101964.06;1615787;88;20226;-74
2020/12/10 06:13:54;;;;;;;21.87;8.70;;;;;;;4.21;90.36;101972.31;1604566;88;21673;-74
2020/12/10 06:16:27;;;;;;;17.50;8.00;;;;;;;4.22;90.44;101985.84;1592689;88;21809;-75
2020/12/10 06:19:03;;;;;;;20.00;9.40;;;;;;;4.25;90.52;101984.61;1588042;88;21241;-76
2020/12/10 06:21:42;;;;;;;16.03;8.13;;;;;;;4.25;90.49;101979.11;1600950;88;21310;-76
2020/12/10 06:24:33;;;;;;;16.93;8.30;;;;;;;4.26;90.55;102005.05;1609155;88;21251;-74
2020/12/10 06:27:09;;;;;;;20.97;9.20;;;;;;;4.30;90.60;101982.16;1609464;88;21299;-75
2020/12/10 06:29:41;;;;;;;18.50;9.57;;;;;;;4.30;90.54;101979.41;1606229;88;21261;-75
2020/12/10 06:32:18;;;;;;;18.73;8.17;;;;;;;4.30;90.56;101973.91;1601640;88;21225;-74
2020/12/10 06:34:55;;;;;;;20.70;9.03;;;;;;;4.31;90.60;101970.11;1611414;88;22038;-75
2020/12/10 06:37:30;;;;;;;14.90;7.80;;;;;;;4.34;90.61;101982.13;1611134;88;21294;-75
2020/12/10 06:40:05;;;;;;;19.03;8.63;;;;;;;4.34;90.63;101960.14;1598192;88;21366;-77
2020/12/10 06:42:49;;;;;;;26.60;9.10;;;;;;;4.34;90.64;101964.26;1624954;88;21893;-76
2020/12/10 06:45:34;;;;;;;18.97;9.27;;;;;;;4.34;90.71;101976.63;1620806;87;21232;-76
2020/12/10 06:48:17;;;;;;;23.20;10.50;;;;;;;4.34;90.76;101971.97;1602978;87;21333;-78
2020/12/10 06:50:51;;;;;;;19.70;8.57;;;;;;;4.35;90.84;101974.20;1624302;87;21213;-77
2020/12/10 06:53:23;;;;;;;;;;;;;;;4.36;90.89;101965.78;1617697;87;21298;-78
2020/12/10 06:56:03;;;;;;;19.62;9.13;;;;;;;4.40;90.93;101948.38;1588665;87;20713;-75
2020/12/10 06:58:45;;;;;;;21.00;9.33;;;;;;;4.41;91.01;101954.20;1592765;90;21292;-80
2020/12/10 07:01:38;;;;;;;19.97;9.40;;;;;;;4.42;91.08;101984.27;1593168;89;21233;-87
2020/12/10 07:07:19;;;;;;;23.63;10.67;;;;;;;4.56;91.47;101942.67;1555129;89;21786;-87
2020/12/10 07:09:56;;;;;;;20.47;8.97;;;;;;;4.64;91.51;101953.05;1597433;88;21830;-76
2020/12/10 07:12:40;;;;;;;16.50;8.17;;;;;;;4.71;91.37;101943.52;1590937;90;21741;-75
2020/12/10 07:15:22;;;;;;;17.73;8.43;;;;;;;4.74;91.17;101954.12;1548596;91;21302;-76
2020/12/10 07:17:51;;;;;;;23.67;8.13;;;;;;;4.77;91.04;101945.51;1563554;91;21262;-76
2020/12/10 07:20:26;;;;;;;23.40;10.27;;;;;;;4.81;90.95;101968.81;1553491;92;21306;-76
2020/12/10 07:22:59;;;;;;;22.50;9.58;;;;;;;4.76;90.78;101928.68;1576203;89;21934;-75
2020/12/10 07:25:32;;;;;;;22.37;9.65;;;;;;;4.77;90.87;101938.63;1549340;89;21483;-75
2020/12/10 07:28:05;;;;;;;21.15;9.48;;;;;;;4.76;90.88;101952.06;1583483;88;21253;-75
2020/12/10 07:30:38;;;;;;;21.90;9.13;;;;;;;4.74;90.95;101919.75;1592445;88;21397;-76
2020/12/10 07:33:10;;;;;;;23.77;10.45;;;;;;;4.75;91.04;101944.31;1591384;89;21252;-76
2020/12/10 07:35:43;;;;;;;18.00;8.73;;;;;;;4.72;91.05;101939.22;1588260;90;21264;-75
2020/12/10 07:38:16;;;;;;;22.75;10.78;;;;;;;4.72;91.11;101928.72;1591922;89;21264;-78
2020/12/10 07:40:56;;;;;;;19.93;9.50;;;;;;;4.71;91.17;101940.23;1592890;90;21241;-76
2020/12/10 07:43:29;;;;;;;23.03;10.10;;;;;;;4.73;91.26;101935.92;1593442;90;21304;-76
2020/12/10 07:46:02;;;;;;;22.13;10.57;;;;;;;4.75;91.38;101940.19;1590343;90;21884;-81
2020/12/10 07:48:39;;;;;;;17.95;8.35;;;;;;;4.77;91.39;101938.63;1593586;90;21237;-82
2020/12/10 07:51:21;;;;;;;22.00;11.70;;;;;;;4.74;91.44;101906.86;1593807;90;21756;-82
2020/12/10 07:53:57;;;;;;;22.87;11.00;;;;;;;4.77;91.55;101935.34;1591378;90;21760;-81
2020/12/10 07:56:31;;;;;;;23.37;12.57;;;;;;;4.80;91.65;101934.11;1549396;91;21368;-75
2020/12/10 07:59:12;;;;;;;19.80;9.67;;;;;;;4.79;91.68;101920.89;1589170;90;21438;-74
2020/12/10 08:01:56;;;;;;;20.90;10.23;;;;;;;4.82;91.78;101925.16;1610843;88;21265;-80
2020/12/10 08:04:29;;;;;;;23.03;9.93;;;;;;;4.84;91.85;101912.05;1591946;88;21254;-82
2020/12/10 08:07:02;;;;;;;20.97;11.07;;;;;;;4.86;91.92;101920.95;1618446;88;21335;-80
2020/12/10 08:09:36;;;;;;;19.83;9.90;;;;;;;4.87;91.98;101903.40;1605656;88;21219;-81
2020/12/10 08:12:13;;;;;;;25.60;11.23;;;;;;;4.85;92.00;101922.01;1607248;88;21310;-82
2020/12/10 08:14:50;;;;;;;18.57;8.73;;;;;;;4.87;92.13;101907.52;1608454;88;21245;-83
2020/12/10 08:17:24;;;;;;;20.67;10.00;;;;;;;4.90;92.20;101912.66;1615049;88;21297;-81
2020/12/10 08:19:57;;;;;;;20.50;10.07;;;;;;;4.90;92.32;101909.91;1619145;88;21335;-81
2020/12/10 08:22:30;;;;;;;22.90;10.13;;;;;;;4.90;92.35;101918.99;1624095;88;21422;-79
2020/12/10 08:25:04;;;;;;;21.57;10.17;;;;;;;4.89;92.42;101948.09;1620997;88;21230;-81
2020/12/10 08:27:37;;;;;;;21.77;10.00;;;;;;;4.89;92.58;101921.42;1592934;88;21306;-84
2020/12/10 08:30:11;;;;;;;25.15;11.63;;;;;;;4.93;92.72;101917.75;1610905;88;21247;-82
2020/12/10 08:32:58;;;;;;;25.43;11.70;;;;;;;4.95;92.79;101941.28;1604221;88;21302;-81
2020/12/10 08:35:42;;;;;;;22.97;10.93;;;;;;;4.97;92.86;101899.31;1615262;88;21238;-81
2020/12/10 08:38:17;;;;;;;25.55;10.68;;;;;;;5.05;93.02;101897.81;1597577;88;21358;-82
2020/12/10 08:40:57;;;;;;;20.47;9.67;;;;;;;5.08;93.04;101895.19;1614065;88;21458;-81
2020/12/10 08:43:29;;;;;;;25.83;10.93;;;;;;;5.08;92.96;101897.94;1593545;88;21286;-80
2020/12/10 08:46:06;;;;;;;21.83;10.47;;;;;;;5.10;93.07;101907.71;1591277;88;21302;-81
2020/12/10 08:48:39;;;;;;;20.87;10.57;;;;;;;5.13;93.12;101889.95;1590054;88;21831;-82
2020/12/10 08:51:12;;;;;;;24.97;12.07;;;;;;;5.14;93.20;101893.03;1627134;88;21377;-81
2020/12/10 08:53:49;;;;;;;26.63;12.07;;;;;;;5.17;93.30;101885.75;1607226;88;21290;-83
2020/12/10 08:56:24;;;;;;;30.97;14.73;;;;;;;5.21;93.38;101873.30;1593882;89;21356;-83
2020/12/10 08:58:57;;;;;;;22.90;12.67;;;;;;;5.20;93.31;101879.86;1586657;90;21309;-81
2020/12/10 09:01:30;;;;;;;29.13;13.30;;;;;;;5.21;93.38;101873.30;1584760;89;21778;-82
2020/12/10 09:04:03;;;;;;;23.10;11.75;;;;;;;5.22;93.40;101873.63;1582964;89;21242;-85
2020/12/10 09:06:37;;;;;;;24.67;13.05;;;;;;;5.22;93.47;101855.73;1580626;90;21224;-82
2020/12/10 09:09:09;;;;;;;29.25;12.23;;;;;;;5.23;93.57;101847.80;1586454;90;21304;-85
2020/12/10 09:11:47;;;;;;;22.40;11.57;;;;;;;5.23;93.67;101880.83;1570194;90;21731;-81
2020/12/10 09:14:20;;;;;;;21.87;11.03;;;;;;;5.23;93.75;101853.30;1586339;90;21720;-83
2020/12/10 09:16:52;;;;;;;22.57;11.40;;;;;;;5.25;93.88;101851.23;1593212;90;21779;-80
2020/12/10 09:19:26;;;;;;;23.73;12.03;;;;;;;5.30;94.05;101837.19;1601347;87;21280;-83
2020/12/10 09:22:00;;;;;;;19.92;10.40;;;;;;;5.34;94.13;101823.87;1599384;88;21294;-82
2020/12/10 09:24:33;;;;;;;21.80;11.20;;;;;;;5.38;94.19;101814.17;1626426;87;21358;-81
2020/12/10 09:27:09;;;;;;;23.43;12.20;;;;;;;5.42;94.27;101815.45;1618543;87;21278;-80
2020/12/10 09:29:41;;;;;;;26.52;13.32;;;;;;;5.46;94.34;101817.64;1603892;87;21761;-82
2020/12/10 09:32:14;;;;;;;30.33;13.57;;;;;;;5.51;94.37;101823.91;1626881;86;21246;-83
2020/12/10 09:34:47;;;;;;;28.32;14.60;;;;;;;5.51;94.36;101803.26;1603112;87;21241;-81
2020/12/10 09:37:21;;;;;;;25.55;12.70;;;;;;;5.55;94.38;101799.06;1623577;87;21244;-81
2020/12/10 09:39:54;;;;;;;21.80;12.03;;;;;;;5.57;94.39;101805.22;1614922;87;21811;-82
2020/12/10 09:42:31;;;;;;;22.93;11.97;;;;;;;5.61;94.44;101800.47;1591788;88;21265;-83
2020/12/10 09:45:04;;;;;;;25.33;12.07;;;;;;;5.63;94.47;101808.00;1620761;87;21228;-85
2020/12/10 09:47:38;;;;;;;23.00;12.27;;;;;;;5.65;94.48;101788.02;1625277;87;21312;-85
2020/12/10 09:50:19;;;;;;;26.40;13.37;;;;;;;5.68;94.48;101804.66;1617387;87;21291;-84
2020/12/10 09:52:53;;;;;;;24.90;13.53;;;;;;;5.72;94.54;101792.17;1605550;88;54945;-85
2020/12/10 09:55:38;;;;;;;20.57;10.20;;;;;;;5.79;94.63;101795.30;1623936;87;21260;-84
2020/12/10 09:57:56;;;;;;;23.00;11.40;;;;;;;5.85;94.69;101798.66;1632289;86;21249;-84
2020/12/10 10:00:29;;;;;;;26.00;13.60;;;;;;;5.89;94.66;101784.81;1624484;88;21399;-84
2020/12/10 10:03:07;;;;;;;22.22;11.78;;;;;;;5.93;94.64;101765.95;1625439;88;21289;-83
2020/12/10 10:05:38;;;;;;;19.40;9.50;;;;;;;5.95;94.61;101799.66;1624716;87;21749;-82
2020/12/10 10:08:11;;;;;;;25.68;13.05;;;;;;;5.95;94.57;101777.62;1624832;88;21272;-81
2020/12/10 10:10:44;;;;;;;22.02;12.63;;;;;;;5.95;94.54;101773.48;1632578;86;21978;-84
2020/12/10 10:13:16;;;;;;;26.47;13.07;;;;;;;5.99;94.69;101759.63;1635374;86;21272;-84
2020/12/10 10:15:49;;;;;;;21.10;10.60;;;;;;;6.01;94.76;101769.91;1628656;87;21260;-85
2020/12/10 10:18:23;;;;;;;;;;;;;;;6.06;94.82;101770.16;1639729;86;21281;-83
2020/12/10 10:20:55;;;;;;;25.97;12.63;;;;;;;6.09;94.84;101762.84;1632858;87;20217;-82
2020/12/10 10:23:31;;;;;;;26.93;13.93;;;;;;;6.11;94.85;101777.29;1635195;87;21720;-81
2020/12/10 10:26:04;;;;;;;29.40;13.73;;;;;;;6.12;94.91;101766.58;1643706;86;21316;-83
2020/12/10 10:28:39;;;;;;;24.12;11.35;;;;;;;6.16;94.99;101763.75;1636379;86;21442;-83
2020/12/10 10:31:12;;;;;;;26.67;12.40;;;;;;;6.19;95.04;101767.45;1635482;86;21250;-85
2020/12/10 10:33:45;;;;;;;22.05;11.65;;;;;;;6.20;95.01;101753.47;1626472;86;21270;-84
2020/12/10 10:36:22;;;;;;;28.25;12.07;;;;;;;6.25;95.08;101756.98;1622880;87;21788;-83
2020/12/10 10:38:55;;;;;;;28.60;13.33;;;;;;;6.27;95.08;101761.75;1622962;86;21277;-83
2020/12/10 10:41:28;;;;;;;24.85;12.20;;;;;;;6.28;95.09;101759.34;1603382;87;21242;-83
2020/12/10 10:44:01;;;;;;;22.82;11.03;;;;;;;6.30;95.11;101781.48;1591346;88;21255;-84
2020/12/10 10:46:34;;;;;;;24.98;11.85;;;;;;;6.37;95.21;101755.33;1590757;88;21781;-85
2020/12/10 10:49:08;;;;;;;33.93;15.53;;;;;;;6.42;95.22;101759.16;1636432;86;21273;-84
2020/12/10 10:51:41;;;;;;;29.70;12.93;;;;;;;6.44;95.16;101763.95;1631012;87;21391;-84
2020/12/10 10:54:13;;;;;;;26.93;13.07;;;;;;;6.48;95.09;101785.91;1633203;86;21628;-85
2020/12/10 10:56:47;;;;;;;27.42;11.00;;;;;;;6.52;95.07;101779.44;1628612;85;21407;-83
2020/12/10 10:59:19;;;;;;;35.03;15.25;;;;;;;6.55;95.11;101760.59;1624549;87;21229;-84
2020/12/10 11:01:54;;;;;;;27.43;12.50;;;;;;;6.60;95.19;101757.20;1596298;89;21236;-84
2020/12/10 11:04:27;;;;;;;48.48;18.48;;;;;;;6.64;95.25;101759.33;1609305;88;21453;-85
2020/12/10 11:07:00;;;;;;;30.50;13.40;;;;;;;6.71;95.28;101762.13;1623191;87;21375;-86
2020/12/10 11:09:33;;;;;;;33.58;14.90;;;;;;;6.78;95.27;101771.26;1618769;88;21372;-85
2020/12/10 11:12:06;;;;;;;34.60;15.97;;;;;;;6.80;95.15;101749.30;1605286;88;21220;-84
2020/12/10 11:14:39;;;;;;;30.50;14.53;;;;;;;6.81;95.07;101752.37;1615548;88;21253;-75
2020/12/10 11:17:12;;;;;;;35.30;16.07;;;;;;;6.85;95.06;101725.20;1621492;88;21284;-76
2020/12/10 11:19:45;;;;;;;28.70;13.58;;;;;;;6.86;94.95;101726.89;1637236;87;21267;-76
2020/12/10 11:22:17;;;;;;;26.80;12.82;;;;;;;6.89;94.88;101734.77;1632337;87;21376;-75
2020/12/10 11:24:50;;;;;;;28.80;13.32;;;;;;;6.91;94.71;101732.63;1640595;86;21237;-76
2020/12/10 11:27:23;;;;;;;31.40;15.68;;;;;;;6.89;94.62;101732.84;1652508;86;21883;-77
2020/12/10 11:29:55;;;;;;;31.82;13.48;;;;;;;6.94;94.68;101748.76;1631164;86;21284;-76
2020/12/10 11:32:29;;;;;;;28.90;14.00;;;;;;;6.93;94.51;101729.98;1628376;86;21245;-76
2020/12/10 11:35:02;;;;;;;28.38;12.73;;;;;;;6.93;94.36;101729.13;1619656;88;21760;-76
2020/12/10 11:37:35;;;;;;;19.52;10.58;;;;;;;6.92;94.17;101723.29;1615478;88;21359;-76
2020/12/10 11:40:08;;;;;;;25.82;13.50;;;;;;;6.88;94.06;101728.38;1626505;87;21226;-77
2020/12/10 11:42:40;;;;;;;26.57;12.98;;;;;;;6.86;94.01;101716.72;1628228;87;21751;-78
2020/12/10 11:45:13;;;;;;;22.87;12.17;;;;;;;6.85;93.97;101723.81;1610442;88;21273;-77
2020/12/10 11:47:46;;;;;;;29.90;12.40;;;;;;;6.83;93.87;101709.39;1625820;87;21345;-78
2020/12/10 11:50:19;;;;;;;21.45;10.28;;;;;;;6.85;93.90;101720.51;1620687;88;22253;-77
2020/12/10 11:52:52;;;;;;;17.65;10.03;;;;;;;6.83;93.77;101703.32;1625230;87;21218;-77
2020/12/10 11:55:25;;;;;;;22.75;11.75;;;;;;;6.84;93.76;101708.33;1608861;88;45042;-76